createdAt,value
2016-09-05T00:00:43.432Z,99.99
2016-09-05T00:01:43.421Z,99.99
2016-09-05T00:02:43.409Z,99.99
2016-09-05T00:03:44.109Z,99.99
2016-09-05T00:04:43.391Z,99.99
2016-09-05T00:05:43.382Z,99.99
2016-09-05T00:06:43.367Z,99.99
2016-09-05T00:07:44.064Z,99.99
2016-09-05T00:08:43.350Z,99.99
2016-09-05T00:09:43.342Z,99.99
2016-09-05T00:10:43.331Z,99.99
2016-09-05T00:11:43.522Z,99.99
2016-09-05T00:12:43.308Z,99.99
2016-09-05T00:13:43.300Z,99.99
2016-09-05T00:14:43.999Z,99.99
2016-09-05T00:15:43.281Z,99.99
2016-09-05T00:16:43.277Z,99.99
2016-09-05T00:17:43.966Z,99.99
2016-09-05T00:18:43.255Z,99.99
2016-09-05T00:19:43.242Z,99.99
2016-09-05T00:20:43.230Z,99.99
2016-09-05T00:21:43.223Z,99.99
2016-09-05T00:22:43.917Z,99.99
2016-09-05T00:23:43.200Z,99.99
2016-09-05T00:24:43.190Z,99.99
2016-09-05T00:25:43.181Z,99.99
2016-09-05T00:26:43.175Z,99.99
2016-09-05T00:27:43.169Z,99.99
2016-09-05T00:28:43.152Z,99.99
2016-09-05T00:29:43.142Z,99.99
2016-09-05T00:30:43.131Z,99.99
2016-09-05T00:31:43.122Z,99.99
2016-09-05T00:32:43.821Z,99.99
2016-09-05T00:33:43.109Z,99.99
2016-09-05T00:34:43.801Z,99.99
2016-09-05T00:35:43.083Z,99.99
2016-09-05T00:36:43.078Z,99.99
2016-09-05T00:37:43.063Z,99.99
2016-09-05T00:38:43.055Z,99.99
2016-09-05T00:39:43.045Z,99.99
2016-09-05T00:40:43.033Z,99.99
2016-09-05T00:41:43.022Z,99.99
2016-09-05T00:42:43.037Z,99.99
2016-09-05T00:43:43.003Z,99.99
2016-09-05T00:44:43.698Z,99.99
2016-09-05T00:45:42.981Z,99.99
2016-09-05T00:46:42.972Z,99.99
2016-09-05T00:47:42.961Z,99.99
2016-09-05T00:48:42.953Z,99.99
2016-09-05T00:49:43.654Z,99.99
2016-09-05T00:50:42.929Z,99.99
2016-09-05T00:51:42.923Z,99.99
2016-09-05T00:52:42.916Z,99.99
2016-09-05T00:53:42.903Z,99.99
2016-09-05T00:54:42.892Z,99.99
2016-09-05T00:55:42.880Z,99.99
2016-09-05T00:56:42.875Z,99.99
2016-09-05T00:57:42.861Z,99.99
2016-09-05T00:58:42.858Z,99.99
2016-09-05T00:59:42.843Z,99.99
2016-09-05T01:00:42.836Z,99.99
2016-09-05T01:01:42.823Z,99.99
2016-09-05T01:02:42.811Z,99.99
2016-09-05T01:03:42.803Z,99.99
2016-09-05T01:04:42.787Z,99.99
2016-09-05T01:05:42.777Z,99.99
2016-09-05T01:06:42.774Z,99.99
2016-09-05T01:07:42.758Z,99.99
2016-09-05T01:08:42.749Z,99.99
2016-09-05T01:09:42.738Z,99.99
2016-09-05T01:10:43.433Z,99.99
2016-09-05T01:11:42.717Z,99.99
2016-09-05T01:12:42.707Z,99.99
2016-09-05T01:13:42.697Z,99.99
2016-09-05T01:14:42.693Z,99.99
2016-09-05T01:15:42.681Z,99.99
2016-09-05T01:16:42.668Z,99.99
2016-09-05T01:17:42.661Z,99.99
2016-09-05T01:18:42.645Z,99.99
2016-09-05T01:19:42.636Z,99.99
2016-09-05T01:20:42.627Z,99.99
2016-09-05T01:21:42.616Z,99.99
2016-09-05T01:22:42.607Z,99.99
2016-09-05T01:23:42.595Z,99.99
2016-09-05T01:24:42.592Z,99.99
2016-09-05T01:25:42.575Z,99.99
2016-09-05T01:26:42.569Z,99.99
2016-09-05T01:27:42.556Z,99.99
2016-09-05T01:28:42.545Z,99.99
2016-09-05T01:29:42.539Z,99.99
2016-09-05T01:30:42.527Z,99.99
2016-09-05T01:31:43.222Z,99.99
2016-09-05T01:32:42.506Z,99.99
2016-09-05T01:33:42.494Z,99.99
2016-09-05T01:34:42.495Z,99.99
2016-09-05T01:35:42.476Z,99.99
2016-09-05T01:36:42.464Z,99.99
2016-09-05T01:37:42.453Z,99.99
2016-09-05T01:38:42.444Z,99.99
2016-09-05T01:39:42.438Z,99.99
2016-09-05T01:40:42.428Z,99.99
2016-09-05T01:41:42.415Z,99.99
2016-09-05T01:42:42.405Z,99.99
2016-09-05T01:43:42.393Z,99.99
2016-09-05T01:44:42.387Z,99.99
2016-09-05T01:45:42.380Z,99.99
2016-09-05T01:46:42.366Z,99.99
2016-09-05T01:47:42.354Z,99.99
2016-09-05T01:48:43.057Z,99.99
2016-09-05T01:49:42.333Z,99.99
2016-09-05T01:50:42.325Z,99.99
2016-09-05T01:51:42.314Z,99.99
2016-09-05T01:52:42.306Z,99.99
2016-09-05T01:53:42.294Z,99.99
2016-09-05T01:54:42.996Z,99.99
2016-09-05T01:55:42.285Z,99.99
2016-09-05T01:56:42.264Z,99.99
2016-09-05T01:57:42.256Z,99.99
2016-09-05T01:58:42.248Z,99.99
2016-09-05T01:59:42.247Z,99.99
2016-09-05T02:00:42.224Z,99.99
2016-09-05T02:01:42.214Z,99.99
2016-09-05T02:02:42.207Z,99.99
2016-09-05T02:03:42.196Z,99.99
2016-09-05T02:04:42.189Z,99.99
2016-09-05T02:05:42.175Z,99.99
2016-09-05T02:06:42.169Z,99.99
2016-09-05T02:07:42.165Z,99.99
2016-09-05T02:08:42.152Z,99.99
2016-09-05T02:09:42.135Z,99.99
2016-09-05T02:10:42.130Z,99.99
2016-09-05T02:11:42.320Z,99.99
2016-09-05T02:12:42.105Z,99.99
2016-09-05T02:13:42.095Z,99.99
2016-09-05T02:14:42.087Z,99.99
2016-09-05T02:15:42.077Z,99.99
2016-09-05T02:16:42.068Z,99.99
2016-09-05T02:17:42.059Z,99.99
2016-09-05T02:18:42.044Z,99.99
2016-09-05T02:19:42.034Z,99.99
2016-09-05T02:20:42.024Z,99.99
2016-09-05T02:21:42.014Z,99.99
2016-09-05T02:22:42.714Z,99.99
2016-09-05T02:23:41.994Z,99.99
2016-09-05T02:24:41.984Z,99.99
2016-09-05T02:25:41.977Z,99.99
2016-09-05T02:26:41.965Z,99.99
2016-09-05T02:27:41.957Z,99.99
2016-09-05T02:28:41.946Z,99.99
2016-09-05T02:29:41.936Z,99.99
2016-09-05T02:30:41.928Z,99.99
2016-09-05T02:31:41.918Z,99.99
2016-09-05T02:32:41.907Z,99.99
2016-09-05T02:33:41.899Z,99.99
2016-09-05T02:34:41.890Z,99.99
2016-09-05T02:35:41.878Z,99.99
2016-09-05T02:36:41.867Z,99.99
2016-09-05T02:37:41.859Z,99.99
2016-09-05T02:38:41.848Z,99.99
2016-09-05T02:39:41.838Z,99.99
2016-09-05T02:40:42.539Z,99.99
2016-09-05T02:41:41.821Z,99.99
2016-09-05T02:42:41.809Z,99.99
2016-09-05T02:43:41.799Z,99.99
2016-09-05T02:44:41.792Z,99.99
2016-09-05T02:45:41.781Z,99.99
2016-09-05T02:46:41.770Z,99.99
2016-09-05T02:47:41.760Z,99.99
2016-09-05T02:48:41.752Z,99.99
2016-09-05T02:49:42.445Z,99.99
2016-09-05T02:50:41.732Z,99.99
2016-09-05T02:51:41.722Z,99.99
2016-09-05T02:52:41.718Z,99.99
2016-09-05T02:53:41.701Z,99.99
2016-09-05T02:54:41.688Z,99.99
2016-09-05T02:55:41.681Z,99.99
2016-09-05T02:56:41.673Z,99.99
2016-09-05T02:57:41.662Z,99.99
2016-09-05T02:58:41.660Z,99.99
2016-09-05T02:59:41.641Z,99.99
2016-09-05T03:00:41.634Z,99.99
2016-09-05T03:01:41.624Z,99.99
2016-09-05T03:02:41.611Z,99.99
2016-09-05T03:03:41.608Z,99.99
2016-09-05T03:04:41.592Z,99.99
2016-09-05T03:05:41.584Z,99.99
2016-09-05T03:06:41.574Z,99.99
2016-09-05T03:07:41.588Z,99.99
2016-09-05T03:08:41.576Z,99.99
2016-09-05T03:09:41.566Z,99.99
2016-09-05T03:10:41.536Z,99.99
2016-09-05T03:11:41.525Z,99.99
2016-09-05T03:12:42.225Z,99.99
2016-09-05T03:13:41.506Z,99.99
2016-09-05T03:14:41.497Z,99.99
2016-09-05T03:15:41.487Z,99.99
2016-09-05T03:16:41.475Z,99.99
2016-09-05T03:17:41.482Z,99.99
2016-09-05T03:18:41.455Z,99.99
2016-09-05T03:19:41.446Z,99.99
2016-09-05T03:20:41.436Z,99.99
2016-09-05T03:21:41.425Z,99.99
2016-09-05T03:22:41.418Z,99.99
2016-09-05T03:23:41.406Z,99.99
2016-09-05T03:24:41.400Z,99.99
2016-09-05T03:25:41.385Z,99.99
2016-09-05T03:26:41.383Z,99.99
2016-09-05T03:27:41.371Z,99.99
2016-09-05T03:28:41.356Z,99.99
2016-09-05T03:29:41.348Z,99.99
2016-09-05T03:30:41.342Z,99.99
2016-09-05T03:31:41.328Z,99.99
2016-09-05T03:32:41.317Z,99.99
2016-09-05T03:33:41.306Z,99.99
2016-09-05T03:34:42.007Z,99.99
2016-09-05T03:35:41.296Z,99.99
2016-09-05T03:36:41.281Z,99.99
2016-09-05T03:37:41.270Z,99.99
2016-09-05T03:38:41.261Z,99.99
2016-09-05T03:39:41.250Z,99.99
2016-09-05T03:40:41.242Z,99.99
2016-09-05T03:41:41.229Z,99.99
2016-09-05T03:42:41.220Z,99.99
2016-09-05T03:43:41.215Z,99.99
2016-09-05T03:44:41.201Z,99.99
2016-09-05T03:45:41.189Z,99.99
2016-09-05T03:46:41.180Z,99.99
2016-09-05T03:47:41.172Z,99.99
2016-09-05T03:48:41.159Z,99.99
2016-09-05T03:49:41.160Z,99.99
2016-09-05T03:50:41.154Z,99.99
2016-09-05T03:51:41.136Z,99.99
2016-09-05T03:52:41.830Z,99.99
2016-09-05T03:53:41.112Z,99.99
2016-09-05T03:54:41.104Z,99.99
2016-09-05T03:55:41.100Z,99.99
2016-09-05T03:56:41.080Z,99.99
2016-09-05T03:57:41.073Z,99.99
2016-09-05T03:58:41.066Z,99.99
2016-09-05T03:59:41.050Z,99.99
2016-09-05T04:00:41.044Z,99.99
2016-09-05T04:01:41.034Z,99.99
2016-09-05T04:02:41.037Z,99.99
2016-09-05T04:03:41.018Z,99.99
2016-09-05T04:04:41.005Z,99.99
2016-09-05T04:05:40.999Z,99.99
2016-09-05T04:06:40.987Z,99.99
2016-09-05T04:07:40.973Z,99.99
2016-09-05T04:08:40.968Z,99.99
2016-09-05T04:09:40.957Z,99.99
2016-09-05T04:10:40.948Z,99.99
2016-09-05T04:11:41.144Z,99.99
2016-09-05T04:12:40.927Z,99.99
2016-09-05T04:13:40.916Z,99.99
2016-09-05T04:14:40.908Z,99.99
2016-09-05T04:15:40.901Z,99.99
2016-09-05T04:16:40.903Z,99.99
2016-09-05T04:17:41.598Z,99.99
2016-09-05T04:18:40.874Z,99.99
2016-09-05T04:19:40.860Z,99.99
2016-09-05T04:20:40.851Z,99.99
2016-09-05T04:21:40.837Z,99.99
2016-09-05T04:22:40.830Z,99.99
2016-09-05T04:23:40.821Z,99.99
2016-09-05T04:24:40.815Z,99.99
2016-09-05T04:25:40.802Z,99.99
2016-09-05T04:26:40.792Z,99.99
2016-09-05T04:27:40.782Z,99.99
2016-09-05T04:28:40.769Z,99.99
2016-09-05T04:29:40.762Z,99.99
2016-09-05T04:30:40.751Z,99.99
2016-09-05T04:31:40.742Z,99.99
2016-09-05T04:32:40.731Z,99.99
2016-09-05T04:33:40.723Z,99.99
2016-09-05T04:34:40.715Z,99.99
2016-09-05T04:35:40.702Z,99.99
2016-09-05T04:36:40.694Z,99.99
2016-09-05T04:37:40.685Z,99.99
2016-09-05T04:38:41.383Z,99.99
2016-09-05T04:39:40.664Z,99.99
2016-09-05T04:40:40.653Z,99.99
2016-09-05T04:41:40.642Z,99.99
2016-09-05T04:42:40.633Z,99.99
2016-09-05T04:43:41.332Z,99.99
2016-09-05T04:44:40.615Z,99.99
2016-09-05T04:45:41.318Z,99.99
2016-09-05T04:46:40.596Z,99.99
2016-09-05T04:47:40.584Z,99.99
2016-09-05T04:48:40.574Z,99.99
2016-09-05T04:49:40.566Z,99.99
2016-09-05T04:50:40.556Z,99.99
2016-09-05T04:51:41.250Z,99.99
2016-09-05T04:52:41.243Z,99.99
2016-09-05T04:53:40.523Z,99.99
2016-09-05T04:54:40.514Z,99.99
2016-09-05T04:55:40.505Z,99.99
2016-09-05T04:56:40.499Z,99.99
2016-09-05T04:57:40.484Z,99.99
2016-09-05T04:58:40.482Z,99.99
2016-09-05T04:59:40.473Z,99.99
2016-09-05T05:00:40.458Z,99.99
2016-09-05T05:01:40.446Z,99.99
2016-09-05T05:02:40.438Z,99.99
2016-09-05T05:03:40.429Z,99.99
2016-09-05T05:04:40.417Z,99.99
2016-09-05T05:05:40.406Z,99.99
2016-09-05T05:06:40.412Z,99.99
2016-09-05T05:07:40.386Z,99.99
2016-09-05T05:08:40.381Z,99.99
2016-09-05T05:09:40.370Z,99.99
2016-09-05T05:10:41.066Z,99.99
2016-09-05T05:11:40.351Z,99.99
2016-09-05T05:12:40.339Z,99.99
2016-09-05T05:13:40.336Z,99.99
2016-09-05T05:14:40.328Z,99.99
2016-09-05T05:15:40.312Z,99.99
2016-09-05T05:16:41.013Z,99.99
2016-09-05T05:17:40.293Z,99.99
2016-09-05T05:18:41.003Z,99.99
2016-09-05T05:19:40.275Z,99.99
2016-09-05T05:20:40.263Z,99.99
2016-09-05T05:21:40.251Z,99.99
2016-09-05T05:22:40.240Z,99.99
2016-09-05T05:23:40.231Z,99.99
2016-09-05T05:24:40.220Z,99.99
2016-09-05T05:25:40.916Z,99.99
2016-09-05T05:26:40.202Z,99.99
2016-09-05T05:27:40.194Z,99.99
2016-09-05T05:28:40.180Z,99.99
2016-09-05T05:29:40.174Z,99.99
2016-09-05T05:30:40.165Z,99.99
2016-09-05T05:31:40.150Z,99.99
2016-09-05T05:32:40.145Z,99.99
2016-09-05T05:33:40.130Z,99.99
2016-09-05T05:34:40.121Z,99.99
2016-09-05T05:35:40.111Z,99.99
2016-09-05T05:36:40.100Z,99.99
2016-09-05T05:37:40.803Z,99.99
2016-09-05T05:38:40.082Z,99.99
2016-09-05T05:39:40.078Z,99.99
2016-09-05T05:40:40.061Z,99.99
2016-09-05T05:41:40.055Z,99.99
2016-09-05T05:42:40.041Z,99.99
2016-09-05T05:43:40.033Z,99.99
2016-09-05T05:44:40.027Z,99.99
2016-09-05T05:45:40.018Z,99.99
2016-09-05T05:46:40.003Z,99.99
2016-09-05T05:47:39.997Z,99.99
2016-09-05T05:48:39.984Z,99.99
2016-09-05T05:49:39.974Z,99.99
2016-09-05T05:50:39.970Z,99.99
2016-09-05T05:51:39.959Z,99.99
2016-09-05T05:52:39.945Z,99.99
2016-09-05T05:53:39.934Z,99.99
2016-09-05T05:54:39.925Z,99.99
2016-09-05T05:55:39.919Z,99.99
2016-09-05T05:56:39.903Z,99.99
2016-09-05T05:57:39.895Z,99.99
2016-09-05T05:58:40.594Z,99.99
2016-09-05T05:59:39.873Z,99.99
2016-09-05T06:00:40.578Z,99.99
2016-09-05T06:01:39.857Z,99.99
2016-09-05T06:02:39.846Z,99.99
2016-09-05T06:03:39.836Z,99.99
2016-09-05T06:04:39.827Z,99.99
2016-09-05T06:05:39.819Z,99.99
2016-09-05T06:06:40.517Z,99.99
2016-09-05T06:07:40.505Z,99.99
2016-09-05T06:08:40.496Z,99.99
2016-09-05T06:09:39.781Z,99.99
2016-09-05T06:10:39.766Z,99.99
2016-09-05T06:11:39.758Z,99.99
2016-09-05T06:12:39.752Z,99.99
2016-09-05T06:13:39.741Z,99.99
2016-09-05T06:14:39.737Z,99.99
2016-09-05T06:15:39.724Z,99.99
2016-09-05T06:16:39.709Z,99.99
2016-09-05T06:17:39.702Z,99.99
2016-09-05T06:18:39.693Z,99.99
2016-09-05T06:19:39.681Z,99.99
2016-09-05T06:20:39.674Z,99.99
2016-09-05T06:21:39.868Z,99.99
2016-09-05T06:22:39.656Z,99.99
2016-09-05T06:23:39.647Z,99.99
2016-09-05T06:24:39.641Z,99.99
2016-09-05T06:25:39.626Z,99.99
2016-09-05T06:26:39.630Z,99.99
2016-09-05T06:27:39.616Z,99.99
2016-09-05T06:28:39.610Z,99.99
2016-09-05T06:29:39.590Z,99.99
2016-09-05T06:30:40.288Z,99.99
2016-09-05T06:31:39.575Z,99.99
2016-09-05T06:32:39.560Z,99.99
2016-09-05T06:33:40.282Z,99.99
2016-09-05T06:34:40.253Z,99.99
2016-09-05T06:35:39.531Z,99.99
2016-09-05T06:36:39.522Z,99.99
2016-09-05T06:37:39.513Z,99.99
2016-09-05T06:38:39.504Z,99.99
2016-09-05T06:39:39.494Z,99.99
2016-09-05T06:40:39.490Z,99.99
2016-09-05T06:41:40.191Z,99.99
2016-09-05T06:42:39.470Z,99.99
2016-09-05T06:43:39.455Z,99.99
2016-09-05T06:44:39.448Z,99.99
2016-09-05T06:45:40.148Z,99.99
2016-09-05T06:46:40.136Z,99.99
2016-09-05T06:47:39.429Z,99.99
2016-09-05T06:48:39.410Z,99.99
2016-09-05T06:49:40.107Z,99.99
2016-09-05T06:50:39.393Z,99.99
2016-09-05T06:51:39.384Z,99.99
2016-09-05T06:52:39.375Z,99.99
2016-09-05T06:53:39.366Z,99.99
2016-09-05T06:54:39.357Z,99.99
2016-09-05T06:55:39.348Z,99.99
2016-09-05T06:56:40.051Z,99.99
2016-09-05T06:57:39.329Z,99.99
2016-09-05T06:58:39.331Z,99.99
2016-09-05T06:59:39.309Z,99.99
2016-09-05T07:00:39.345Z,99.99
2016-09-05T07:01:39.290Z,99.99
2016-09-05T07:02:40.005Z,99.99
2016-09-05T07:03:39.273Z,99.99
2016-09-05T07:04:39.267Z,99.99
2016-09-05T07:05:39.968Z,99.99
2016-09-05T07:06:39.250Z,99.99
2016-09-05T07:07:39.956Z,99.99
2016-09-05T07:08:39.231Z,99.99
2016-09-05T07:09:39.223Z,99.99
2016-09-05T07:10:39.213Z,99.99
2016-09-05T07:11:39.205Z,99.99
2016-09-05T07:12:39.193Z,99.99
2016-09-05T07:13:39.188Z,99.99
2016-09-05T07:14:39.183Z,99.99
2016-09-05T07:15:39.167Z,99.99
2016-09-05T07:16:39.162Z,99.99
2016-09-05T07:17:39.150Z,99.99
2016-09-05T07:18:39.141Z,99.99
2016-09-05T07:19:39.135Z,99.99
2016-09-05T07:20:39.129Z,99.99
2016-09-05T07:21:39.116Z,99.99
2016-09-05T07:22:39.817Z,99.99
2016-09-05T07:23:39.099Z,99.99
2016-09-05T07:24:39.092Z,99.99
2016-09-05T07:25:39.087Z,99.99
2016-09-05T07:26:39.073Z,99.99
2016-09-05T07:27:39.064Z,99.99
2016-09-05T07:28:39.056Z,99.99
2016-09-05T07:29:39.061Z,99.99
2016-09-05T07:30:39.041Z,99.99
2016-09-05T07:31:39.036Z,99.99
2016-09-05T07:32:39.022Z,99.99
2016-09-05T07:33:39.012Z,99.99
2016-09-05T07:34:39.008Z,99.99
2016-09-05T07:35:38.998Z,99.99
2016-09-05T07:36:38.991Z,99.99
2016-09-05T07:37:38.983Z,99.99
2016-09-05T07:38:38.972Z,99.99
2016-09-05T07:39:38.965Z,99.99
2016-09-05T07:40:38.957Z,99.99
2016-09-05T07:41:38.949Z,99.99
2016-09-05T07:42:38.938Z,99.99
2016-09-05T07:43:39.638Z,99.99
2016-09-05T07:44:38.922Z,99.99
2016-09-05T07:45:38.914Z,99.99
2016-09-05T07:46:39.613Z,99.99
2016-09-05T07:47:39.614Z,99.99
2016-09-05T07:48:38.889Z,99.99
2016-09-05T07:49:38.879Z,99.99
2016-09-05T07:50:38.869Z,99.99
2016-09-05T07:51:38.865Z,99.99
2016-09-05T07:52:38.853Z,99.99
2016-09-05T07:53:38.843Z,99.99
2016-09-05T07:54:38.838Z,99.99
2016-09-05T07:55:38.830Z,99.99
2016-09-05T07:56:38.819Z,99.99
2016-09-05T07:57:38.823Z,99.99
2016-09-05T07:58:39.527Z,99.99
2016-09-05T07:59:38.795Z,99.99
2016-09-05T08:00:38.790Z,99.99
2016-09-05T08:01:39.483Z,99.99
2016-09-05T08:02:38.771Z,99.99
2016-09-05T08:03:39.470Z,99.99
2016-09-05T08:04:38.755Z,99.99
2016-09-05T08:05:38.742Z,99.99
2016-09-05T08:06:38.740Z,99.99
2016-09-05T08:07:38.727Z,99.99
2016-09-05T08:08:38.720Z,99.99
2016-09-05T08:09:38.714Z,99.99
2016-09-05T08:10:38.707Z,99.99
2016-09-05T08:11:38.701Z,99.99
2016-09-05T08:12:39.401Z,99.99
2016-09-05T08:13:38.681Z,99.99
2016-09-05T08:14:38.673Z,99.99
2016-09-05T08:15:38.666Z,99.99
2016-09-05T08:16:38.657Z,99.99
2016-09-05T08:17:39.371Z,99.87
2016-09-05T08:18:38.641Z,99.99
2016-09-05T08:19:39.340Z,99.4
2016-09-05T08:20:38.630Z,99.58
2016-09-05T08:21:38.626Z,99.87
2016-09-05T08:22:38.611Z,98.91
2016-09-05T08:23:38.606Z,99.1
2016-09-05T08:24:38.598Z,98.29
2016-09-05T08:25:38.588Z,98.1
2016-09-05T08:26:38.581Z,98.1
2016-09-05T08:27:38.576Z,98.48
2016-09-05T08:28:38.577Z,99.54
2016-09-05T08:29:38.559Z,98.43
2016-09-05T08:30:38.554Z,99.15
2016-09-05T08:31:38.545Z,99.06
2016-09-05T08:32:39.247Z,99.99
2016-09-05T08:33:38.528Z,99.15
2016-09-05T08:34:39.237Z,99.25
2016-09-05T08:35:38.512Z,99.54
2016-09-05T08:36:38.503Z,99.83
2016-09-05T08:37:38.495Z,99.92
2016-09-05T08:38:38.491Z,98.48
2016-09-05T08:39:38.484Z,97.91
2016-09-05T08:40:39.186Z,98.19
2016-09-05T08:41:38.465Z,98.29
2016-09-05T08:42:38.464Z,98.39
2016-09-05T08:43:38.459Z,99.25
2016-09-05T08:44:38.452Z,98.29
2016-09-05T08:45:38.510Z,96.94
2016-09-05T08:46:38.431Z,97.81
2016-09-05T08:47:38.424Z,98.19
2016-09-05T08:48:38.417Z,98.29
2016-09-05T08:49:38.409Z,98.39
2016-09-05T08:50:38.403Z,98.39
2016-09-05T08:51:38.395Z,97.91
2016-09-05T08:52:38.385Z,96.94
2016-09-05T08:53:38.380Z,97.24
2016-09-05T08:54:38.373Z,97.81
2016-09-05T08:55:38.366Z,96.94
2016-09-05T08:56:38.365Z,97.24
2016-09-05T08:57:38.349Z,97.62
2016-09-05T08:58:38.339Z,98.1
2016-09-05T08:59:39.043Z,97.67
2016-09-05T09:00:38.333Z,96.8
2016-09-05T09:01:39.028Z,96.7
2016-09-05T09:02:39.023Z,96.13
2016-09-05T09:03:38.307Z,96.13
2016-09-05T09:04:38.303Z,95.65
2016-09-05T09:05:38.293Z,95.75
2016-09-05T09:06:38.285Z,95.75
2016-09-05T09:07:38.992Z,95.17
2016-09-05T09:08:38.268Z,94.98
2016-09-05T09:09:38.265Z,94.88
2016-09-05T09:10:38.259Z,94.4
2016-09-05T09:11:38.252Z,95.07
2016-09-05T09:12:38.261Z,95.55
2016-09-05T09:13:38.237Z,95.26
2016-09-05T09:14:38.231Z,95.84
2016-09-05T09:15:38.226Z,95.55
2016-09-05T09:16:38.215Z,95.55
2016-09-05T09:17:38.210Z,96.47
2016-09-05T09:18:38.208Z,95.02
2016-09-05T09:19:38.197Z,93.96
2016-09-05T09:20:38.188Z,95.79
2016-09-05T09:21:38.894Z,95.89
2016-09-05T09:22:38.177Z,95.12
2016-09-05T09:23:38.173Z,94.25
2016-09-05T09:24:38.165Z,94.73
2016-09-05T09:25:38.157Z,95.7
2016-09-05T09:26:38.153Z,95.6
2016-09-05T09:27:38.849Z,93.96
2016-09-05T09:28:38.136Z,93.1
2016-09-05T09:29:38.134Z,93.48
2016-09-05T09:30:38.131Z,93.29
2016-09-05T09:31:38.115Z,94.78
2016-09-05T09:32:38.125Z,93.05
2016-09-05T09:33:38.814Z,93.62
2016-09-05T09:34:38.098Z,92.76
2016-09-05T09:35:38.093Z,92.9
2016-09-05T09:36:38.085Z,92.42
2016-09-05T09:37:38.078Z,91.17
2016-09-05T09:38:38.069Z,90.69
2016-09-05T09:39:38.062Z,92.22
2016-09-05T09:40:38.061Z,91.94
2016-09-05T09:41:38.053Z,91.94
2016-09-05T09:42:38.049Z,92.13
2016-09-05T09:43:38.038Z,92.13
2016-09-05T09:44:38.034Z,90.97
2016-09-05T09:45:38.034Z,91.07
2016-09-05T09:46:38.019Z,91.65
2016-09-05T09:47:38.722Z,90.59
2016-09-05T09:48:38.010Z,91.46
2016-09-05T09:49:38.004Z,90.69
2016-09-05T09:50:37.996Z,89.15
2016-09-05T09:51:37.997Z,90.4
2016-09-05T09:52:38.692Z,91.36
2016-09-05T09:53:38.684Z,91.17
2016-09-05T09:54:37.973Z,90.59
2016-09-05T09:55:37.969Z,90.59
2016-09-05T09:56:37.958Z,90.69
2016-09-05T09:57:38.663Z,90.59
2016-09-05T09:58:37.948Z,90.69
2016-09-05T09:59:37.940Z,91.31
2016-09-05T10:00:37.937Z,90.54
2016-09-05T10:01:37.928Z,88.23
2016-09-05T10:02:37.924Z,88.9
2016-09-05T10:03:37.917Z,88.61
2016-09-05T10:04:37.913Z,88.81
2016-09-05T10:05:37.903Z,89.48
2016-09-05T10:06:38.610Z,89.29
2016-09-05T10:07:37.898Z,88.9
2016-09-05T10:08:37.891Z,88.9
2016-09-05T10:09:37.883Z,89.14
2016-09-05T10:10:38.583Z,89.23
2016-09-05T10:11:37.880Z,88.46
2016-09-05T10:12:38.066Z,88.27
2016-09-05T10:13:37.860Z,88.17
2016-09-05T10:14:38.563Z,88.51
2016-09-05T10:15:38.556Z,88.61
2016-09-05T10:16:37.844Z,89.29
2016-09-05T10:17:37.839Z,88.57
2016-09-05T10:18:37.833Z,88.95
2016-09-05T10:19:38.535Z,89.63
2016-09-05T10:20:37.819Z,90.97
2016-09-05T10:21:37.810Z,90.69
2016-09-05T10:22:37.813Z,90.01
2016-09-05T10:23:38.514Z,89.97
2016-09-05T10:24:37.792Z,90.69
2016-09-05T10:25:37.792Z,89.24
2016-09-05T10:26:37.781Z,89.05
2016-09-05T10:27:37.773Z,90.11
2016-09-05T10:28:37.768Z,90.01
2016-09-05T10:29:37.764Z,89
2016-09-05T10:30:37.760Z,88.95
2016-09-05T10:31:37.752Z,88.9
2016-09-05T10:32:38.450Z,88.13
2016-09-05T10:33:38.450Z,88.57
2016-09-05T10:34:37.733Z,87.84
2016-09-05T10:35:37.724Z,88.32
2016-09-05T10:36:37.728Z,86.15
2016-09-05T10:37:38.427Z,87.02
2016-09-05T10:38:38.422Z,87.02
2016-09-05T10:39:37.703Z,86.82
2016-09-05T10:40:37.696Z,86.54
2016-09-05T10:41:37.691Z,86.44
2016-09-05T10:42:37.683Z,86.35
2016-09-05T10:43:37.678Z,86.3
2016-09-05T10:44:37.672Z,86.59
2016-09-05T10:45:37.662Z,87.07
2016-09-05T10:46:38.365Z,87.07
2016-09-05T10:47:38.366Z,87.46
2016-09-05T10:48:37.655Z,87.36
2016-09-05T10:49:37.658Z,86.88
2016-09-05T10:50:37.642Z,84.99
2016-09-05T10:51:37.633Z,83.45
2016-09-05T10:52:37.626Z,84.03
2016-09-05T10:53:37.619Z,83.74
2016-09-05T10:54:37.612Z,84.27
2016-09-05T10:55:37.607Z,83.5
2016-09-05T10:56:37.605Z,83.59
2016-09-05T10:57:37.597Z,81.95
2016-09-05T10:58:37.593Z,83.63
2016-09-05T10:59:37.584Z,84.69
2016-09-05T11:00:37.595Z,83.25
2016-09-05T11:01:37.578Z,84.21
2016-09-05T11:02:37.574Z,84.5
2016-09-05T11:03:37.566Z,84.5
2016-09-05T11:04:37.557Z,84.98
2016-09-05T11:05:37.550Z,82.67
2016-09-05T11:06:38.255Z,80.26
2016-09-05T11:07:37.544Z,79.39
2016-09-05T11:08:37.536Z,80.26
2016-09-05T11:09:38.244Z,81.51
2016-09-05T11:10:38.237Z,81.99
2016-09-05T11:11:37.523Z,82.86
2016-09-05T11:12:38.222Z,81.41
2016-09-05T11:13:37.506Z,78.36
2016-09-05T11:14:38.206Z,78.56
2016-09-05T11:15:37.501Z,79.81
2016-09-05T11:16:37.492Z,80.2
2016-09-05T11:17:37.482Z,81.26
2016-09-05T11:18:37.485Z,81.26
2016-09-05T11:19:37.476Z,81.35
2016-09-05T11:20:37.480Z,80.33
2016-09-05T11:21:37.467Z,79.95
2016-09-05T11:22:37.465Z,79.8
2016-09-05T11:23:37.456Z,77.76
2016-09-05T11:24:37.451Z,77.28
2016-09-05T11:25:37.450Z,77.76
2016-09-05T11:26:37.444Z,77.19
2016-09-05T11:27:37.436Z,77.92
2016-09-05T11:28:38.141Z,78.5
2016-09-05T11:29:38.142Z,77.25
2016-09-05T11:30:37.425Z,77.19
2016-09-05T11:31:37.428Z,79.12
2016-09-05T11:32:37.414Z,77.09
2016-09-05T11:33:37.409Z,76.9
2016-09-05T11:34:37.406Z,78.83
2016-09-05T11:35:37.400Z,78.73
2016-09-05T11:36:37.396Z,77.19
2016-09-05T11:37:37.395Z,78.06
2016-09-05T11:38:37.391Z,77.38
2016-09-05T11:39:38.093Z,75.06
2016-09-05T11:40:37.385Z,75.16
2016-09-05T11:41:37.400Z,76.18
2016-09-05T11:42:37.373Z,76.76
2016-09-05T11:43:37.365Z,78.21
2016-09-05T11:44:37.360Z,74.96
2016-09-05T11:45:37.357Z,75.64
2016-09-05T11:46:37.351Z,75.54
2016-09-05T11:47:37.346Z,75.06
2016-09-05T11:48:37.343Z,73.9
2016-09-05T11:49:37.338Z,74.87
2016-09-05T11:50:37.333Z,76.28
2016-09-05T11:51:38.038Z,75.93
2016-09-05T11:52:37.325Z,76.42
2016-09-05T11:53:38.026Z,74.48
2016-09-05T11:54:37.315Z,73.9
2016-09-05T11:55:37.311Z,75.84
2016-09-05T11:56:37.306Z,75.99
2016-09-05T11:57:37.298Z,76.95
2016-09-05T11:58:37.295Z,76.86
2016-09-05T11:59:37.285Z,79.08
2016-09-05T12:00:37.292Z,78.27
2016-09-05T12:01:37.279Z,79.04
2016-09-05T12:02:37.988Z,78.85
2016-09-05T12:03:37.267Z,77.59
2016-09-05T12:04:37.971Z,77.59
2016-09-05T12:05:37.259Z,77.78
2016-09-05T12:06:37.252Z,79.14
2016-09-05T12:07:37.250Z,78.56
2016-09-05T12:08:37.245Z,77.11
2016-09-05T12:09:37.238Z,77.69
2016-09-05T12:10:37.233Z,78.56
2016-09-05T12:11:37.229Z,79.14
2016-09-05T12:12:38.148Z,78.46
2016-09-05T12:13:37.219Z,77.63
2016-09-05T12:14:37.220Z,76.15
2016-09-05T12:15:37.921Z,76.95
2016-09-05T12:16:37.202Z,76.72
2016-09-05T12:17:37.195Z,77.11
2016-09-05T12:18:37.189Z,77.4
2016-09-05T12:19:37.185Z,76.92
2016-09-05T12:20:37.182Z,77.88
2016-09-05T12:21:37.892Z,77.5
2016-09-05T12:22:37.169Z,78.85
2016-09-05T12:23:37.164Z,79.52
2016-09-05T12:24:37.157Z,79.81
2016-09-05T12:25:37.154Z,81.26
2016-09-05T12:26:37.150Z,80.78
2016-09-05T12:27:37.150Z,80.54
2016-09-05T12:28:37.137Z,81.16
2016-09-05T12:29:37.132Z,81.07
2016-09-05T12:30:37.125Z,81.35
2016-09-05T12:31:37.121Z,80.39
2016-09-05T12:32:37.120Z,81.16
2016-09-05T12:33:37.116Z,79.72
2016-09-05T12:34:37.105Z,79.62
2016-09-05T12:35:37.412Z,78.17
2016-09-05T12:36:37.410Z,77.92
2016-09-05T12:37:37.105Z,77.83
2016-09-05T12:38:37.401Z,77.83
2016-09-05T12:39:37.390Z,77.78
2016-09-05T12:40:37.072Z,80.2
2016-09-05T12:41:37.065Z,79.14
2016-09-05T12:42:37.058Z,79.14
2016-09-05T12:43:37.056Z,77.4
2016-09-05T12:44:37.053Z,75.99
2016-09-05T12:45:37.361Z,78.02
2016-09-05T12:46:37.038Z,76.57
2016-09-05T12:47:37.353Z,75.06
2016-09-05T12:48:37.348Z,74.71
2016-09-05T12:49:37.336Z,71.11
2016-09-05T12:50:37.024Z,70.04
2016-09-05T12:51:37.016Z,70.82
2016-09-05T12:52:37.008Z,70.82
2016-09-05T12:53:37.015Z,71.17